createdAt,value
2019-02-06T00:02:18.576Z,30.23
2019-02-06T00:04:49.146Z,29.40
2019-02-06T00:07:19.690Z,28.83
2019-02-06T00:09:50.326Z,29.50
2019-02-06T00:12:21.109Z,26.93
2019-02-06T00:14:51.621Z,27.70
2019-02-06T00:17:22.170Z,29.13
2019-02-06T00:19:52.707Z,29.47
2019-02-06T00:22:23.217Z,27.80
2019-02-06T00:24:53.681Z,29.07
2019-02-06T00:27:25.679Z,28.27
2019-02-06T00:29:56.179Z,27.40
2019-02-06T00:32:46.020Z,27.43
2019-02-06T00:35:25.548Z,28.50
2019-02-06T00:37:48.703Z,29.50
2019-02-06T00:40:19.271Z,28.03
2019-02-06T00:42:49.875Z,27.80
2019-02-06T00:45:21.916Z,28.80
2019-02-06T00:47:52.440Z,27.30
2019-02-06T00:50:23.391Z,27.87
2019-02-06T00:52:55.627Z,27.30
2019-02-06T00:55:26.128Z,28.90
2019-02-06T00:57:56.703Z,27.30
2019-02-06T01:00:27.325Z,26.67
2019-02-06T01:02:58.169Z,25.90
2019-02-06T01:05:38.036Z,27.17
2019-02-06T01:08:00.941Z,26.70
2019-02-06T01:10:31.409Z,24.83
2019-02-06T01:13:02.057Z,25.27
2019-02-06T01:15:32.534Z,25.23
2019-02-06T01:18:03.237Z,28.13
2019-02-06T01:20:33.707Z,24.53
2019-02-06T01:23:04.845Z,25.43
2019-02-06T01:25:35.388Z,25.63
2019-02-06T01:28:05.952Z,27.10
2019-02-06T01:30:38.063Z,25.77
2019-02-06T01:33:08.570Z,26.30
2019-02-06T01:35:49.421Z,27.60
2019-02-06T01:38:11.410Z,29.10
2019-02-06T01:40:41.898Z,26.90
2019-02-06T01:43:12.475Z,26.17
2019-02-06T01:45:43.398Z,25.90
2019-02-06T01:48:13.897Z,27.70
2019-02-06T01:50:45.436Z,27.00
2019-02-06T01:53:15.979Z,25.30
2019-02-06T01:55:46.479Z,27.73
2019-02-06T01:58:16.981Z,26.77
2019-02-06T02:00:47.457Z,27.77
2019-02-06T02:03:19.827Z,25.73
2019-02-06T02:06:01.431Z,26.83
2019-02-06T02:08:22.527Z,27.00
2019-02-06T02:10:52.982Z,27.10
2019-02-06T02:13:23.663Z,24.93
2019-02-06T02:15:54.164Z,29.07
2019-02-06T02:18:24.773Z,29.00
2019-02-06T02:20:55.321Z,29.03
2019-02-06T02:23:25.842Z,29.73
2019-02-06T02:25:58.567Z,28.83
2019-02-06T02:28:29.067Z,26.20
2019-02-06T02:30:59.896Z,28.73
2019-02-06T02:33:30.405Z,29.27
2019-02-06T02:36:00.957Z,25.90
2019-02-06T02:38:33.094Z,24.80
2019-02-06T02:41:03.685Z,25.77
2019-02-06T02:43:34.468Z,24.77
2019-02-06T02:46:05.524Z,25.77
2019-02-06T02:48:36.137Z,27.13
2019-02-06T02:51:06.984Z,29.57
2019-02-06T02:53:37.449Z,29.57
2019-02-06T02:56:07.947Z,30.47
2019-02-06T02:58:38.457Z,26.93
2019-02-06T03:01:27.014Z,25.23
2019-02-06T03:03:59.537Z,26.53
2019-02-06T03:06:30.769Z,24.87
2019-02-06T03:09:04.689Z,25.60
2019-02-06T03:11:35.155Z,25.57
2019-02-06T03:14:05.728Z,28.60
2019-02-06T03:16:36.466Z,26.43
2019-02-06T03:19:06.964Z,28.33
2019-02-06T03:21:37.432Z,29.60
2019-02-06T03:24:08.073Z,30.60
2019-02-06T03:26:38.544Z,32.47
2019-02-06T03:29:09.440Z,33.83
2019-02-06T03:31:40.060Z,32.97
2019-02-06T03:34:10.535Z,34.00
2019-02-06T03:36:41.086Z,28.53
2019-02-06T03:39:11.765Z,30.50
2019-02-06T03:41:42.264Z,31.67
2019-02-06T03:44:13.014Z,33.83
2019-02-06T03:46:43.519Z,28.57
2019-02-06T03:49:15.158Z,31.20
2019-02-06T03:51:45.744Z,28.50
2019-02-06T03:54:16.215Z,27.80
2019-02-06T03:56:46.801Z,26.90
2019-02-06T03:59:17.276Z,29.07
2019-02-06T04:01:47.772Z,26.27
2019-02-06T04:04:18.266Z,26.30
2019-02-06T04:06:54.968Z,28.47
2019-02-06T04:09:20.947Z,27.17
2019-02-06T04:11:51.736Z,25.40
2019-02-06T04:14:22.206Z,22.50
2019-02-06T04:16:52.710Z,25.07
2019-02-06T04:19:23.227Z,22.27
2019-02-06T04:21:53.698Z,25.63
2019-02-06T04:24:24.679Z,28.20
2019-02-06T04:26:55.174Z,29.60
2019-02-06T04:29:25.672Z,27.27
2019-02-06T04:31:56.147Z,24.73
2019-02-06T04:34:26.686Z,27.53
2019-02-06T04:37:06.367Z,21.20
2019-02-06T04:39:29.327Z,20.47
2019-02-06T04:41:59.799Z,21.57
2019-02-06T04:44:30.309Z,24.53
2019-02-06T04:47:00.803Z,18.90
2019-02-06T04:49:31.286Z,21.33
2019-02-06T04:52:02.287Z,18.73
2019-02-06T04:54:32.859Z,21.23
2019-02-06T04:57:03.354Z,20.40
2019-02-06T04:59:33.862Z,18.63
2019-02-06T05:02:04.409Z,18.63
2019-02-06T05:04:34.965Z,19.47
2019-02-06T05:07:18.334Z,20.17
2019-02-06T05:09:38.825Z,20.60
2019-02-06T05:12:09.693Z,18.10
2019-02-06T05:14:40.225Z,19.97
2019-02-06T05:17:10.685Z,21.23
2019-02-06T05:19:41.676Z,20.67
2019-02-06T05:22:12.182Z,22.10
2019-02-06T05:24:42.738Z,23.20
2019-02-06T05:27:14.121Z,22.80
2019-02-06T05:29:44.601Z,23.63
2019-02-06T05:32:15.101Z,21.40
2019-02-06T05:34:45.578Z,21.13
2019-02-06T05:37:16.075Z,20.47
2019-02-06T05:39:46.550Z,26.30
2019-02-06T05:42:17.046Z,21.13
2019-02-06T05:44:48.261Z,22.00
2019-02-06T05:47:18.770Z,22.10
2019-02-06T05:49:49.248Z,22.60
2019-02-06T05:52:20.994Z,25.60
2019-02-06T05:54:51.488Z,23.40
2019-02-06T05:57:21.966Z,20.60
2019-02-06T05:59:52.473Z,22.00
2019-02-06T06:02:23.312Z,24.27
2019-02-06T06:04:53.831Z,22.07
2019-02-06T06:07:24.370Z,23.53
2019-02-06T06:09:54.885Z,22.80
2019-02-06T06:12:25.360Z,23.90
2019-02-06T06:14:55.874Z,24.47
2019-02-06T06:17:26.734Z,59.20
2019-02-06T06:19:57.255Z,48.13
2019-02-06T06:22:27.755Z,38.77
2019-02-06T06:24:58.226Z,63.07
2019-02-06T06:27:29.977Z,62.90
2019-02-06T06:30:00.485Z,30.43
2019-02-06T06:32:31.990Z,28.77
2019-02-06T06:35:03.662Z,24.70
2019-02-06T06:37:34.951Z,25.50
2019-02-06T06:40:15.363Z,25.80
2019-02-06T06:42:46.257Z,23.43
2019-02-06T06:45:25.267Z,24.20
2019-02-06T06:47:55.784Z,21.87
2019-02-06T06:50:27.616Z,23.30
2019-02-06T06:53:00.462Z,26.43
2019-02-06T06:55:30.941Z,23.93
2019-02-06T06:58:01.434Z,23.90
2019-02-06T07:00:32.765Z,22.90
2019-02-06T07:03:03.262Z,22.87
2019-02-06T07:05:33.760Z,21.73
2019-02-06T07:08:09.634Z,20.93
2019-02-06T07:10:36.888Z,22.70
2019-02-06T07:13:07.411Z,22.33
2019-02-06T07:15:37.886Z,22.07
2019-02-06T07:18:08.470Z,24.13
2019-02-06T07:20:38.944Z,23.40
2019-02-06T07:23:09.503Z,25.20
2019-02-06T07:25:40.092Z,63.77
2019-02-06T07:28:12.099Z,85.10
2019-02-06T07:30:42.620Z,39.20
2019-02-06T07:33:14.161Z,26.27
2019-02-06T07:35:46.796Z,22.07
2019-02-06T07:38:24.228Z,21.30
2019-02-06T07:40:49.476Z,22.40
2019-02-06T07:43:20.025Z,19.50
2019-02-06T07:45:50.578Z,19.97
2019-02-06T07:48:21.418Z,41.23
2019-02-06T07:50:51.926Z,27.73
2019-02-06T07:53:22.425Z,25.40
2019-02-06T07:55:53.015Z,34.40
2019-02-06T07:58:23.703Z,24.07
2019-02-06T08:00:54.187Z,20.40
2019-02-06T08:03:24.680Z,19.07
2019-02-06T08:05:55.156Z,20.00
2019-02-06T08:08:35.633Z,19.97
2019-02-06T08:10:59.109Z,16.63
2019-02-06T08:13:29.639Z,18.63
2019-02-06T08:16:00.557Z,17.57
2019-02-06T08:18:31.062Z,19.67
2019-02-06T08:21:01.537Z,17.13
2019-02-06T08:23:32.042Z,20.67
2019-02-06T08:26:02.506Z,22.30
2019-02-06T08:28:33.001Z,20.60
2019-02-06T08:31:03.499Z,21.97
2019-02-06T08:33:34.039Z,21.20
2019-02-06T08:36:04.702Z,19.60
2019-02-06T08:38:45.783Z,19.57
2019-02-06T08:41:07.445Z,21.47
2019-02-06T08:43:39.788Z,20.70
2019-02-06T08:46:10.402Z,22.23
2019-02-06T08:48:40.968Z,21.90
2019-02-06T08:51:11.498Z,23.60
2019-02-06T08:53:42.013Z,25.30
2019-02-06T08:56:12.646Z,25.10
2019-02-06T08:58:43.105Z,30.87
2019-02-06T09:01:13.604Z,33.90
2019-02-06T09:03:44.079Z,30.60
2019-02-06T09:06:14.596Z,31.53
2019-02-06T09:08:45.164Z,34.83
2019-02-06T09:11:16.013Z,35.17
2019-02-06T09:13:46.500Z,33.40
2019-02-06T09:16:16.972Z,32.47
2019-02-06T09:18:48.120Z,31.70
2019-02-06T09:21:18.573Z,34.10
2019-02-06T09:23:49.060Z,35.47
2019-02-06T09:26:20.549Z,34.50
2019-02-06T09:28:51.005Z,35.53
2019-02-06T09:31:21.499Z,33.90
2019-02-06T09:33:51.962Z,34.97
2019-02-06T09:36:22.461Z,33.87
2019-02-06T09:38:53.316Z,37.83
2019-02-06T09:41:23.792Z,33.50
2019-02-06T09:43:54.824Z,35.07
2019-02-06T09:46:25.389Z,35.60
2019-02-06T09:48:55.845Z,36.97
2019-02-06T09:51:26.353Z,36.00
2019-02-06T09:53:56.814Z,35.33
2019-02-06T09:56:27.309Z,36.43
2019-02-06T09:58:57.844Z,38.13
2019-02-06T10:01:28.395Z,41.63
2019-02-06T10:03:58.888Z,44.70
2019-02-06T10:06:29.952Z,39.57
2019-02-06T10:09:00.471Z,31.80
2019-02-06T10:11:30.961Z,32.97
2019-02-06T10:14:01.452Z,32.90
2019-02-06T10:16:31.992Z,32.10
2019-02-06T10:19:02.491Z,31.67
2019-02-06T10:21:33.134Z,30.50
2019-02-06T10:24:03.621Z,29.90
2019-02-06T10:26:34.079Z,31.10
2019-02-06T10:29:04.990Z,30.70
2019-02-06T10:31:35.506Z,29.17
2019-02-06T10:34:06.136Z,28.27
2019-02-06T10:36:36.715Z,27.37
2019-02-06T10:39:09.324Z,27.40
2019-02-06T10:41:39.955Z,28.87
2019-02-06T10:44:10.484Z,25.60
2019-02-06T10:46:41.033Z,27.20
2019-02-06T10:49:11.557Z,29.40
2019-02-06T10:51:42.042Z,28.20
2019-02-06T10:54:14.641Z,33.13
2019-02-06T10:56:44.702Z,34.83
2019-02-06T10:59:15.238Z,26.30
2019-02-06T11:01:46.175Z,26.73
2019-02-06T11:04:16.733Z,25.40
2019-02-06T11:06:47.370Z,24.90
2019-02-06T11:09:19.420Z,23.03
2019-02-06T11:11:49.946Z,21.63
2019-02-06T11:14:20.411Z,21.40
2019-02-06T11:16:50.978Z,24.37
2019-02-06T11:19:21.510Z,28.37
2019-02-06T11:21:51.991Z,21.93
2019-02-06T11:24:26.735Z,24.57
2019-02-06T11:26:56.180Z,28.80
2019-02-06T11:29:26.857Z,26.80
2019-02-06T11:31:57.328Z,25.20
2019-02-06T11:34:27.858Z,26.70
2019-02-06T11:36:58.348Z,24.23
2019-02-06T11:39:28.839Z,23.20
2019-02-06T11:41:59.327Z,37.07
2019-02-06T11:44:29.823Z,46.40
2019-02-06T11:47:00.286Z,22.80
2019-02-06T11:49:32.434Z,22.60
2019-02-06T11:52:02.900Z,21.70
2019-02-06T11:54:34.072Z,20.20
2019-02-06T11:57:04.597Z,20.17
2019-02-06T11:59:35.092Z,21.47
2019-02-06T12:02:05.930Z,20.37
2019-02-06T12:04:36.428Z,17.30
2019-02-06T12:07:07.111Z,16.90
2019-02-06T12:09:38.000Z,17.13
2019-02-06T12:12:09.914Z,17.80
2019-02-06T12:14:41.395Z,15.03
2019-02-06T12:17:12.821Z,15.33
2019-02-06T12:19:43.451Z,15.83
2019-02-06T12:22:15.497Z,15.30
2019-02-06T12:24:45.962Z,14.90
2019-02-06T12:27:16.464Z,13.77
2019-02-06T12:29:46.942Z,13.33
2019-02-06T12:32:18.902Z,13.60
2019-02-06T12:34:49.393Z,16.17
2019-02-06T12:37:20.047Z,16.60
2019-02-06T12:39:50.537Z,19.30
2019-02-06T12:42:21.500Z,20.23
2019-02-06T12:44:51.958Z,14.07
2019-02-06T12:47:22.460Z,18.17
2019-02-06T12:49:52.928Z,28.03
2019-02-06T12:52:25.279Z,18.63
2019-02-06T12:54:55.708Z,16.30
2019-02-06T12:57:36.313Z,18.60
2019-02-06T12:59:58.362Z,21.50
2019-02-06T13:02:30.233Z,18.70
2019-02-06T13:05:00.732Z,15.53
2019-02-06T13:07:31.569Z,13.80
2019-02-06T13:10:02.093Z,11.00
2019-02-06T13:12:32.552Z,12.43
2019-02-06T13:15:03.051Z,18.90
2019-02-06T13:17:33.516Z,14.30
2019-02-06T13:20:06.085Z,14.30
2019-02-06T13:22:36.554Z,15.70
2019-02-06T13:25:10.670Z,17.20
2019-02-06T13:27:41.224Z,13.93
2019-02-06T13:30:37.290Z,14.17
2019-02-06T13:33:11.579Z,13.53
2019-02-06T13:35:41.339Z,12.00
2019-02-06T13:38:11.798Z,10.67
2019-02-06T13:40:45.833Z,10.67
2019-02-06T13:43:14.444Z,10.70
2019-02-06T13:45:48.577Z,10.53
2019-02-06T13:48:19.037Z,11.27
2019-02-06T13:50:50.629Z,10.47
2019-02-06T13:53:21.943Z,10.23
2019-02-06T13:55:52.647Z,10.40
2019-02-06T13:58:24.815Z,9.77
2019-02-06T14:00:55.356Z,10.20
2019-02-06T14:03:25.903Z,12.13
2019-02-06T14:05:56.557Z,13.73
2019-02-06T14:08:27.460Z,11.73
2019-02-06T14:11:00.708Z,12.20
2019-02-06T14:13:30.266Z,12.03
2019-02-06T14:16:00.735Z,12.80
2019-02-06T14:18:31.244Z,12.30
2019-02-06T14:21:02.440Z,11.60
2019-02-06T14:23:43.163Z,11.23
2019-02-06T14:26:27.117Z,12.00
2019-02-06T14:29:28.282Z,12.80
2019-02-06T14:32:24.368Z,11.60
2019-02-06T14:35:24.026Z,12.17
2019-02-06T14:38:18.292Z,11.30
2019-02-06T14:41:08.956Z,14.00
2019-02-06T14:44:09.737Z,13.90
2019-02-06T14:47:18.057Z,11.90
2019-02-06T14:50:08.333Z,11.80
2019-02-06T14:52:59.932Z,12.37
2019-02-06T14:56:16.412Z,11.00
2019-02-06T14:59:12.417Z,12.20
2019-02-06T15:02:14.615Z,12.77
2019-02-06T15:05:07.687Z,13.00
2019-02-06T15:07:54.567Z,14.00
2019-02-06T15:10:39.029Z,16.93
2019-02-06T15:13:29.097Z,20.50
2019-02-06T15:16:28.484Z,20.37
2019-02-06T15:19:29.020Z,21.67
2019-02-06T15:22:38.993Z,21.73
2019-02-06T15:25:44.233Z,21.57
2019-02-06T15:28:46.649Z,23.60
2019-02-06T15:31:39.418Z,22.90
2019-02-06T15:34:32.719Z,21.77
2019-02-06T15:37:28.449Z,23.40
2019-02-06T15:40:15.303Z,23.43
2019-02-06T15:43:11.556Z,21.57
2019-02-06T15:46:04.508Z,27.80
2019-02-06T15:49:14.002Z,35.60
2019-02-06T15:52:09.646Z,41.00
2019-02-06T15:54:47.670Z,39.37
2019-02-06T15:57:51.504Z,40.30
2019-02-06T16:00:50.214Z,40.90
2019-02-06T16:03:29.897Z,41.07
2019-02-06T16:06:23.318Z,44.03
2019-02-06T16:09:09.746Z,41.90
2019-02-06T16:12:19.573Z,43.27
2019-02-06T16:15:15.470Z,45.50
2019-02-06T16:18:08.333Z,44.30
2019-02-06T16:20:54.733Z,46.40
2019-02-06T16:23:54.189Z,44.20
2019-02-06T16:26:53.379Z,42.67
2019-02-06T16:29:46.755Z,42.37
2019-02-06T16:32:48.473Z,41.13
2019-02-06T16:35:44.830Z,37.70
2019-02-06T16:38:45.531Z,39.10
2019-02-06T16:41:38.120Z,36.03
2019-02-06T16:44:25.387Z,40.60
2019-02-06T16:47:28.418Z,37.70
2019-02-06T16:50:33.295Z,32.73
2019-02-06T16:53:42.923Z,29.97
2019-02-06T16:56:53.084Z,26.33
2019-02-06T16:59:43.020Z,27.03
2019-02-06T17:02:39.078Z,24.90
2019-02-06T17:05:30.923Z,26.60
2019-02-06T17:08:23.962Z,30.23
2019-02-06T17:11:24.197Z,28.97
2019-02-06T17:13:59.362Z,27.97
2019-02-06T17:17:10.927Z,33.50
2019-02-06T17:20:10.018Z,30.13
2019-02-06T17:23:26.954Z,28.67
2019-02-06T17:26:40.660Z,29.57
2019-02-06T17:29:16.140Z,27.27
2019-02-06T17:32:23.234Z,29.07
2019-02-06T17:35:18.143Z,30.30
2019-02-06T17:37:56.159Z,28.87
2019-02-06T17:40:49.142Z,28.10
2019-02-06T17:43:36.117Z,28.60
2019-02-06T17:46:16.626Z,31.13
2019-02-06T17:49:13.545Z,31.70
2019-02-06T17:52:17.445Z,31.30
2019-02-06T17:55:18.616Z,32.00
2019-02-06T17:57:51.657Z,29.70
2019-02-06T18:00:35.306Z,29.60
2019-02-06T18:03:13.520Z,30.97
2019-02-06T18:05:47.168Z,28.70
2019-02-06T18:08:17.745Z,28.40
2019-02-06T18:10:48.295Z,27.17
2019-02-06T18:13:18.812Z,28.60
2019-02-06T18:15:51.254Z,26.60
2019-02-06T18:18:22.426Z,39.17
2019-02-06T18:20:54.264Z,32.80
2019-02-06T18:23:26.427Z,26.03
2019-02-06T18:25:57.071Z,23.43
2019-02-06T18:28:29.181Z,23.63
2019-02-06T18:30:59.821Z,23.87
2019-02-06T18:33:31.235Z,23.47
2019-02-06T18:36:01.991Z,25.10
2019-02-06T18:38:32.525Z,25.20
2019-02-06T18:41:03.703Z,24.60
2019-02-06T18:43:34.217Z,25.93
2019-02-06T18:46:05.939Z,25.37
2019-02-06T18:48:37.553Z,24.80
2019-02-06T18:51:09.630Z,23.93
2019-02-06T18:53:40.136Z,21.77
2019-02-06T18:56:12.290Z,24.40
2019-02-06T18:58:44.438Z,21.80
2019-02-06T19:01:14.922Z,23.50
2019-02-06T19:03:47.186Z,25.10
2019-02-06T19:06:19.000Z,24.57
2019-02-06T19:08:52.107Z,23.93
2019-02-06T19:11:24.699Z,23.67
2019-02-06T19:13:59.190Z,22.43
2019-02-06T19:16:29.749Z,21.30
2019-02-06T19:19:00.433Z,22.33
2019-02-06T19:21:31.799Z,21.90
2019-02-06T19:24:02.325Z,21.20
2019-02-06T19:26:34.600Z,22.47
2019-02-06T19:29:05.654Z,22.63
2019-02-06T19:31:36.190Z,22.37
2019-02-06T19:34:08.802Z,20.40
2019-02-06T19:36:39.283Z,20.53
2019-02-06T19:39:10.112Z,21.03
2019-02-06T19:41:42.899Z,19.90
2019-02-06T19:44:13.417Z,23.60
2019-02-06T19:46:43.907Z,23.07
2019-02-06T19:49:14.423Z,22.50
2019-02-06T19:51:44.888Z,27.30
2019-02-06T19:54:15.392Z,49.83
2019-02-06T19:56:45.962Z,26.97
2019-02-06T19:59:18.255Z,25.00
2019-02-06T20:01:49.131Z,23.50
2019-02-06T20:04:19.943Z,22.33
2019-02-06T20:06:50.465Z,22.30
2019-02-06T20:09:20.931Z,21.53
2019-02-06T20:11:51.434Z,21.53
2019-02-06T20:14:21.906Z,24.00
2019-02-06T20:16:53.002Z,22.47
2019-02-06T20:19:23.892Z,22.53
2019-02-06T20:21:54.377Z,21.80
2019-02-06T20:24:24.950Z,23.07
2019-02-06T20:26:55.431Z,23.80
2019-02-06T20:29:27.467Z,23.80
2019-02-06T20:31:57.990Z,23.63
2019-02-06T20:34:28.897Z,22.13
2019-02-06T20:36:59.366Z,24.07
2019-02-06T20:39:29.865Z,22.97
2019-02-06T20:42:01.998Z,24.87
2019-02-06T20:44:32.572Z,24.60
2019-02-06T20:47:04.492Z,24.97
2019-02-06T20:49:35.371Z,25.73
2019-02-06T20:52:06.025Z,22.80
2019-02-06T20:54:36.500Z,23.37
2019-02-06T20:57:13.707Z,23.07
2019-02-06T20:59:39.199Z,25.00
2019-02-06T21:02:10.839Z,24.20
2019-02-06T21:04:41.336Z,22.77
2019-02-06T21:07:11.973Z,23.43
2019-02-06T21:09:42.476Z,23.60
2019-02-06T21:12:12.949Z,24.60
2019-02-06T21:14:43.458Z,22.10
2019-02-06T21:17:14.209Z,24.60
2019-02-06T21:19:44.720Z,23.17
2019-02-06T21:22:15.262Z,20.30
2019-02-06T21:24:45.791Z,20.83
2019-02-06T21:27:16.273Z,21.30
2019-02-06T21:29:47.034Z,22.60
2019-02-06T21:32:17.595Z,23.00
2019-02-06T21:34:48.122Z,24.50
2019-02-06T21:37:18.633Z,25.00
2019-02-06T21:39:49.148Z,25.50
2019-02-06T21:42:19.762Z,24.97
2019-02-06T21:44:51.762Z,24.53
2019-02-06T21:47:24.846Z,25.87
2019-02-06T21:49:54.457Z,24.70
2019-02-06T21:52:24.966Z,23.27
2019-02-06T21:54:55.717Z,26.37
2019-02-06T21:57:26.239Z,24.17
2019-02-06T21:59:56.739Z,23.70
2019-02-06T22:02:27.315Z,25.20
2019-02-06T22:04:57.820Z,25.30
2019-02-06T22:07:28.335Z,24.00
2019-02-06T22:09:58.836Z,24.47
2019-02-06T22:12:29.609Z,25.97
2019-02-06T22:15:01.225Z,24.37
2019-02-06T22:17:31.783Z,25.07
2019-02-06T22:20:02.294Z,27.20
2019-02-06T22:22:32.835Z,25.50
2019-02-06T22:25:05.613Z,29.40
2019-02-06T22:27:36.113Z,26.20
2019-02-06T22:30:29.218Z,24.37
2019-02-06T22:32:59.895Z,25.37
2019-02-06T22:35:30.386Z,26.27
2019-02-06T22:38:00.868Z,27.00
2019-02-06T22:40:31.367Z,27.70
2019-02-06T22:43:01.875Z,28.90
2019-02-06T22:45:32.335Z,27.20
2019-02-06T22:48:03.323Z,27.57
2019-02-06T22:50:33.889Z,28.37
2019-02-06T22:53:04.529Z,26.80
2019-02-06T22:55:34.995Z,26.50
2019-02-06T22:58:05.749Z,26.87
2019-02-06T23:00:59.942Z,27.20
2019-02-06T23:03:34.900Z,27.57
2019-02-06T23:06:06.482Z,28.83
2019-02-06T23:08:37.018Z,27.77
2019-02-06T23:11:07.868Z,28.83
2019-02-06T23:13:38.409Z,28.53
2019-02-06T23:16:08.982Z,25.80
2019-02-06T23:18:39.482Z,28.30
2019-02-06T23:21:09.954Z,26.80
2019-02-06T23:23:40.838Z,26.60
2019-02-06T23:26:11.541Z,27.70
2019-02-06T23:28:42.107Z,26.17
2019-02-06T23:31:14.148Z,28.10
2019-02-06T23:33:44.641Z,29.50
2019-02-06T23:36:15.492Z,29.13
2019-02-06T23:38:46.007Z,30.10
2019-02-06T23:41:19.003Z,29.23
2019-02-06T23:43:49.517Z,25.93
2019-02-06T23:46:20.060Z,28.00
2019-02-06T23:48:53.191Z,28.17
2019-02-06T23:51:25.208Z,30.73
2019-02-06T23:53:55.726Z,27.40
2019-02-06T23:56:27.960Z,27.37
2019-02-06T23:58:58.706Z,26.93
